createdAt,value
2022-12-18T00:04:27.360Z,86.30
2022-12-18T00:11:31.295Z,87.04
2022-12-18T00:18:33.948Z,87.04
2022-12-18T00:25:38.138Z,86.82
2022-12-18T00:32:40.347Z,87.75
2022-12-18T00:39:42.413Z,88.39
2022-12-18T00:46:44.906Z,88.96
2022-12-18T00:53:47.147Z,88.62
2022-12-18T01:00:49.323Z,88.49
2022-12-18T01:07:51.310Z,87.96
2022-12-18T01:14:53.327Z,87.87
2022-12-18T01:21:55.226Z,87.68
2022-12-18T01:28:58.041Z,88.06
2022-12-18T01:35:59.953Z,87.90
2022-12-18T01:43:01.868Z,88.32
2022-12-18T01:50:10.696Z,88.47
2022-12-18T01:57:12.858Z,88.07
2022-12-18T02:04:26.674Z,88.38
2022-12-18T02:11:41.724Z,88.26
2022-12-18T02:18:47.867Z,88.25
2022-12-18T02:26:14.253Z,88.53
2022-12-18T02:33:16.860Z,88.14
2022-12-18T02:40:19.191Z,87.94
2022-12-18T02:47:24.380Z,87.93
2022-12-18T02:54:35.111Z,87.68
2022-12-18T03:01:46.795Z,87.82
2022-12-18T03:08:52.837Z,87.51
2022-12-18T03:15:57.574Z,87.64
2022-12-18T03:23:08.570Z,87.31
2022-12-18T03:30:13.520Z,87.19
2022-12-18T03:37:15.482Z,87.15
2022-12-18T03:44:33.678Z,87.21
2022-12-18T03:51:44.175Z,87.05
2022-12-18T03:58:47.391Z,87.22
2022-12-18T04:05:52.131Z,87.07
2022-12-18T04:12:58.606Z,87.36
2022-12-18T04:20:00.768Z,87.16
2022-12-18T04:27:02.776Z,86.98
2022-12-18T04:34:05.042Z,87.01
2022-12-18T04:41:07.086Z,87.12
2022-12-18T04:48:09.204Z,87.09
2022-12-18T04:55:11.410Z,87.04
2022-12-18T05:02:13.570Z,86.67
2022-12-18T05:09:15.791Z,86.41
2022-12-18T05:16:18.549Z,86.60
2022-12-18T05:23:21.378Z,86.77
2022-12-18T05:30:23.904Z,86.77
2022-12-18T05:37:25.869Z,86.66
2022-12-18T05:44:27.779Z,86.65
2022-12-18T05:51:29.762Z,86.91
2022-12-18T05:58:32.278Z,87.15
2022-12-18T06:05:45.334Z,86.82
2022-12-18T06:12:47.293Z,86.58
2022-12-18T06:19:49.515Z,86.39
2022-12-18T06:26:51.527Z,87.57
2022-12-18T06:33:53.614Z,86.66
2022-12-18T06:40:55.772Z,86.14
2022-12-18T06:47:57.760Z,86.28
2022-12-18T06:55:01.197Z,85.68
2022-12-18T07:02:03.397Z,85.17
2022-12-18T07:09:05.493Z,85.21
2022-12-18T07:16:21.097Z,85.68
2022-12-18T07:23:26.408Z,85.00
2022-12-18T07:30:28.634Z,85.79
2022-12-18T07:37:30.836Z,86.00
2022-12-18T07:44:33.117Z,85.82
2022-12-18T07:51:35.235Z,85.42
2022-12-18T07:58:38.153Z,85.21
2022-12-18T08:05:40.142Z,84.88
2022-12-18T08:12:42.227Z,84.23
2022-12-18T08:19:44.344Z,84.91
2022-12-18T08:27:01.016Z,83.95
2022-12-18T08:34:09.312Z,84.10
2022-12-18T08:41:19.797Z,83.51
2022-12-18T08:48:31.165Z,83.38
2022-12-18T08:55:34.192Z,83.65
2022-12-18T09:03:12.168Z,83.63
2022-12-18T09:10:20.998Z,82.78
2022-12-18T09:17:38.807Z,82.28
2022-12-18T09:24:55.274Z,81.72
2022-12-18T09:31:57.705Z,81.39
2022-12-18T09:39:07.606Z,81.18
2022-12-18T09:46:17.834Z,80.58
2022-12-18T09:53:27.593Z,79.78
2022-12-18T10:00:40.055Z,80.02
2022-12-18T10:07:59.734Z,80.28
2022-12-18T10:15:27.890Z,80.04
2022-12-18T10:23:09.552Z,79.72
2022-12-18T10:30:39.562Z,79.27
2022-12-18T10:38:02.041Z,79.55
2022-12-18T10:45:16.198Z,79.97
2022-12-18T10:52:22.902Z,80.60
2022-12-18T10:59:25.110Z,81.03
2022-12-18T11:06:27.518Z,81.24
2022-12-18T11:13:31.451Z,80.76
2022-12-18T11:20:37.125Z,81.61
2022-12-18T11:27:41.395Z,81.30
2022-12-18T11:34:47.125Z,81.86
2022-12-18T11:42:10.439Z,81.76
2022-12-18T11:49:25.887Z,80.76
2022-12-18T11:56:36.362Z,80.39
2022-12-18T12:03:57.113Z,79.78
2022-12-18T12:11:34.456Z,79.54
2022-12-18T12:18:42.526Z,79.30
2022-12-18T12:26:21.775Z,79.04
2022-12-18T12:33:40.419Z,79.27
2022-12-18T12:40:53.830Z,79.75
2022-12-18T12:47:59.535Z,79.54
2022-12-18T12:55:04.360Z,80.12
2022-12-18T13:02:24.552Z,80.44
2022-12-18T13:09:31.912Z,81.28
2022-12-18T13:16:41.518Z,81.79
2022-12-18T13:23:44.178Z,81.67
2022-12-18T13:30:59.133Z,84.07
2022-12-18T13:38:01.158Z,85.63
2022-12-18T13:45:58.689Z,86.13
2022-12-18T13:53:01.731Z,86.56
2022-12-18T14:00:26.685Z,87.08
2022-12-18T14:07:34.702Z,87.93
2022-12-18T14:14:48.985Z,88.74
2022-12-18T14:21:52.018Z,89.05
2022-12-18T14:28:55.483Z,89.74
2022-12-18T14:36:02.534Z,90.17
2022-12-18T14:43:04.519Z,90.52
2022-12-18T14:50:14.333Z,90.87
2022-12-18T14:57:24.723Z,91.13
2022-12-18T15:04:37.745Z,91.40
2022-12-18T15:11:43.940Z,91.81
2022-12-18T15:18:50.051Z,92.17
2022-12-18T15:26:05.471Z,92.16
2022-12-18T15:33:26.338Z,92.76
2022-12-18T15:40:30.045Z,92.99
2022-12-18T15:47:34.578Z,93.52
2022-12-18T15:54:55.706Z,94.30
2022-12-18T16:01:59.571Z,94.98
2022-12-18T16:09:03.199Z,95.64
2022-12-18T16:16:07.995Z,95.89
2022-12-18T16:23:15.885Z,95.96
2022-12-18T16:30:25.619Z,95.91
2022-12-18T16:37:33.108Z,95.80
2022-12-18T16:44:35.966Z,95.75
2022-12-18T16:51:39.321Z,95.60
2022-12-18T16:58:42.172Z,95.40
2022-12-18T17:05:48.809Z,94.94
2022-12-18T17:12:57.164Z,95.15
2022-12-18T17:20:00.148Z,95.10
2022-12-18T17:27:04.307Z,94.84
2022-12-18T17:34:06.857Z,94.38
2022-12-18T17:41:11.155Z,93.79
2022-12-18T17:48:14.361Z,94.01
2022-12-18T17:55:20.784Z,93.89
2022-12-18T18:02:23.783Z,93.98
2022-12-18T18:09:27.952Z,93.94
2022-12-18T18:16:45.444Z,94.17
2022-12-18T18:23:48.471Z,94.49
2022-12-18T18:30:54.960Z,94.29
2022-12-18T18:37:57.822Z,94.33
2022-12-18T18:45:00.374Z,94.11
2022-12-18T18:52:03.767Z,94.17
2022-12-18T18:59:06.310Z,94.32
2022-12-18T19:06:09.560Z,94.60
2022-12-18T19:13:22.711Z,94.49
2022-12-18T19:20:27.195Z,94.06
2022-12-18T19:27:31.280Z,93.82
2022-12-18T19:34:33.979Z,93.16
2022-12-18T19:41:37.128Z,92.72
2022-12-18T19:48:42.374Z,92.29
2022-12-18T19:55:46.838Z,92.15
2022-12-18T20:02:51.391Z,92.16
2022-12-18T20:10:01.409Z,91.80
2022-12-18T20:17:07.932Z,91.73
2022-12-18T20:24:10.760Z,91.79
2022-12-18T20:31:14.193Z,92.18
2022-12-18T20:38:17.538Z,91.72
2022-12-18T20:45:20.551Z,90.88
2022-12-18T20:52:24.240Z,90.08
2022-12-18T20:59:27.550Z,90.03
2022-12-18T21:06:30.671Z,90.70
2022-12-18T21:13:32.806Z,90.78
2022-12-18T21:20:35.300Z,90.26
2022-12-18T21:27:37.459Z,89.98
2022-12-18T21:34:43.379Z,90.16
2022-12-18T21:42:08.482Z,90.54
2022-12-18T21:49:12.780Z,90.48
2022-12-18T21:56:14.737Z,90.46
2022-12-18T22:03:18.537Z,90.25
2022-12-18T22:10:21.611Z,89.87
2022-12-18T22:17:24.152Z,89.68
2022-12-18T22:24:29.442Z,89.38
2022-12-18T22:31:31.531Z,89.37
2022-12-18T22:38:34.046Z,88.97
2022-12-18T22:45:38.014Z,88.76
2022-12-18T22:52:40.958Z,88.80
2022-12-18T22:59:42.954Z,88.68
2022-12-18T23:06:45.823Z,88.43
2022-12-18T23:13:47.840Z,88.42
2022-12-18T23:20:50.070Z,88.73
2022-12-18T23:27:52.125Z,88.96
2022-12-18T23:34:54.122Z,88.34
2022-12-18T23:41:56.806Z,88.00
2022-12-18T23:48:59.881Z,88.06
2022-12-18T23:56:03.136Z,88.37
